Time;durP1;ratioP1;P1;durP2;ratioP2;P2;SDS_P1;SDS_P2;PMS_P1;PMS_P2;Temp;Humidity;BMP_temperature;BMP_pressure;BME280_temperature;BME280_humidity;BME280_pressure;Samples;Min_cycle;Max_cycle;Signal;HPM_P1;HPM_P2
2022/12/13 00:02:10;;;;;;;6.27;4.43;;;;;;;;;;6275683;22;20011;-69
2022/12/13 00:04:36;;;;;;;7.37;4.40;;;;;;;;;;6275503;22;20079;-71
2022/12/13 00:07:02;;;;;;;5.77;4.00;;;;;;;;;;6276122;22;20490;-70
2022/12/13 00:09:28;;;;;;;7.30;4.13;;;;;;;;;;6276219;22;20082;-69
2022/12/13 00:11:54;;;;;;;7.20;4.77;;;;;;;;;;6276161;22;20014;-68
2022/12/13 00:14:20;;;;;;;6.43;4.17;;;;;;;;;;6275395;22;20000;-69
2022/12/13 00:16:47;;;;;;;7.63;4.30;;;;;;;;;;6275729;22;20003;-70
2022/12/13 00:19:13;;;;;;;6.40;3.80;;;;;;;;;;6276197;22;20008;-71
2022/12/13 00:21:39;;;;;;;7.17;4.43;;;;;;;;;;6276564;22;20027;-69
2022/12/13 00:24:06;;;;;;;7.20;3.60;;;;;;;;;;6276013;22;19996;-69
2022/12/13 00:26:32;;;;;;;6.37;3.93;;;;;;;;;;6276301;22;20065;-70
2022/12/13 00:29:02;;;;;;;7.50;4.10;;;;;;;;;;6275630;22;20010;-70
2022/12/13 00:31:30;;;;;;;6.20;4.37;;;2.50;65.10;;;;;;6299924;22;20043;-70
2022/12/13 00:33:57;;;;;;;6.67;4.13;;;1.70;66.90;;;;;;6276164;22;19999;-71
2022/12/13 00:36:23;;;;;;;5.87;3.77;;;1.60;66.10;;;;;;6275975;22;20000;-71
2022/12/13 00:38:59;;;;;;;6.10;3.83;;;1.60;66.20;;;;;;6275788;22;20007;-70
2022/12/13 00:41:27;;;;;;;5.17;3.10;;;1.70;66.40;;;;;;6275729;22;20083;-70
2022/12/13 00:43:53;;;;;;;5.47;3.07;;;1.60;64.90;;;;;;6277654;22;20322;-69
2022/12/13 00:46:21;;;;;;;4.27;2.93;;;1.70;64.70;;;;;;6276168;22;20014;-69
2022/12/13 00:48:51;;;;;;;5.07;3.13;;;1.70;65.00;;;;;;6278089;22;20414;-69
2022/12/13 00:51:19;;;;;;;3.27;2.50;;;1.70;64.70;;;;;;6277246;22;20026;-69
2022/12/13 00:53:44;;;;;;;3.70;2.60;;;1.70;64.60;;;;;;6277874;22;19996;-69
2022/12/13 00:56:20;;;;;;;4.73;2.60;;;1.70;64.20;;;;;;6277832;22;20004;-69
2022/12/13 00:58:46;;;;;;;5.67;3.13;;;1.80;63.90;;;;;;6278379;22;20008;-69
2022/12/13 01:01:15;;;;;;;3.93;2.67;;;1.80;63.60;;;;;;6277740;22;20034;-72
2022/12/13 01:03:41;;;;;;;4.90;3.50;;;1.80;64.40;;;;;;6277507;22;20079;-70
2022/12/13 01:06:09;;;;;;;4.27;3.00;;;1.80;65.00;;;;;;6277904;22;19999;-70
2022/12/13 01:08:35;;;;;;;5.10;3.70;;;1.80;65.50;;;;;;6278000;22;20000;-70
2022/12/13 01:11:02;;;;;;;7.33;3.50;;;1.80;65.20;;;;;;6277731;22;20086;-71
2022/12/13 01:13:28;;;;;;;5.63;3.27;;;1.80;64.40;;;;;;6277939;22;20100;-70
2022/12/13 01:15:54;;;;;;;5.10;3.33;;;1.80;64.50;;;;;;6277496;22;20035;-70
2022/12/13 01:18:19;;;;;;;4.93;3.03;;;1.80;64.20;;;;;;6277320;22;20000;-70
2022/12/13 01:20:58;;;;;;;5.33;2.93;;;1.80;62.90;;;;;;6277462;22;20031;-71
2022/12/13 01:23:24;;;;;;;6.27;2.83;;;1.90;62.80;;;;;;6275801;22;20028;-69
2022/12/13 01:25:50;;;;;;;6.07;3.27;;;1.90;62.80;;;;;;6277377;22;20004;-69
2022/12/13 01:28:16;;;;;;;5.40;3.33;;;1.90;63.10;;;;;;6277148;22;20083;-69
2022/12/13 01:30:41;;;;;;;4.47;3.10;;;1.90;62.90;;;;;;6276811;22;20012;-71
2022/12/13 01:33:07;;;;;;;4.23;2.70;;;1.90;63.20;;;;;;6277396;22;20325;-68
2022/12/13 01:35:34;;;;;;;4.60;2.80;;;2.00;63.40;;;;;;6277748;22;20035;-69
2022/12/13 01:38:00;;;;;;;4.57;2.70;;;2.00;63.30;;;;;;6277345;22;20025;-69
2022/12/13 01:40:26;;;;;;;4.23;2.67;;;1.90;62.90;;;;;;6276818;22;20027;-69
2022/12/13 01:42:52;;;;;;;4.70;2.60;;;1.90;62.50;;;;;;6277503;22;20006;-69
2022/12/13 01:45:27;;;;;;;5.07;2.47;;;1.90;62.40;;;;;;6277757;22;19992;-70
2022/12/13 01:48:05;;;;;;;4.77;2.30;;;2.00;61.80;;;;;;6277392;22;20004;-69
2022/12/13 01:50:35;;;;;;;4.40;2.53;;;1.90;61.90;;;;;;6277037;22;20062;-68
2022/12/13 01:53:04;;;;;;;3.63;2.40;;;1.90;62.10;;;;;;6276787;22;20373;-69
2022/12/13 01:55:33;;;;;;;4.80;2.93;;;1.90;61.80;;;;;;6277091;22;20000;-69
2022/12/13 01:58:01;;;;;;;3.90;2.50;;;1.90;62.10;;;;;;6274861;22;20007;-69
2022/12/13 02:00:27;;;;;;;4.57;2.10;;;1.90;62.60;;;;;;6272787;22;20024;-69
2022/12/13 02:02:57;;;;;;;4.00;2.63;;;1.90;61.80;;;;;;6273336;22;20012;-69
2022/12/13 02:05:58;;;;;;;3.43;2.50;;;1.90;62.50;;;;;;6275613;22;20387;-69
2022/12/13 02:08:24;;;;;;;2.90;2.10;;;1.90;62.10;;;;;;6276854;22;20000;-71
2022/12/13 02:10:50;;;;;;;4.20;2.40;;;1.90;61.70;;;;;;6276540;22;20014;-69
2022/12/13 02:13:16;;;;;;;5.27;2.90;;;2.00;62.00;;;;;;6276622;22;20060;-69
2022/12/13 02:15:46;;;;;;;3.37;2.00;;;1.90;61.90;;;;;;6276444;22;20034;-69
2022/12/13 02:18:34;;;;;;;4.27;2.20;;;1.90;62.00;;;;;;6276837;22;20362;-70
2022/12/13 02:21:21;;;;;;;2.97;2.13;;;1.90;61.70;;;;;;6276465;22;20330;-69
2022/12/13 02:24:22;;;;;;;3.20;2.20;;;1.90;60.90;;;;;;6276885;22;20004;-69
2022/12/13 02:27:06;;;;;;;3.37;1.97;;;1.90;61.20;;;;;;6276702;22;20003;-69
2022/12/13 02:29:44;;;;;;;2.43;1.77;;;1.90;60.90;;;;;;6276559;22;20003;-68
2022/12/13 02:32:28;;;;;;;3.13;2.00;;;1.90;60.90;;;;;;6276791;22;20034;-69
2022/12/13 02:35:03;;;;;;;4.87;2.17;;;1.90;59.90;;;;;;6276864;22;20357;-69
2022/12/13 02:37:39;;;;;;;2.70;1.93;;;1.90;60.40;;;;;;6276563;22;20003;-69
2022/12/13 02:40:28;;;;;;;4.30;2.23;;;1.90;60.80;;;;;;6276477;22;19996;-72
2022/12/13 02:43:08;;;;;;;3.03;1.97;;;1.90;60.80;;;;;;6276154;22;20027;-69
2022/12/13 02:45:40;;;;;;;2.90;1.97;;;;;;;;;;6275065;22;20122;-69
2022/12/13 02:48:08;;;;;;;5.68;1.77;;;;;;;;;;6276865;22;20000;-69
2022/12/13 02:50:35;;;;;;;2.90;1.90;;;;;;;;;;6276332;22;20012;-69
2022/12/13 02:53:02;;;;;;;3.03;2.03;;;;;;;;;;6276154;22;20012;-69
2022/12/13 02:55:28;;;;;;;3.13;2.10;;;;;;;;;;6276662;22;20328;-69
2022/12/13 02:57:54;;;;;;;3.17;1.93;;;;;;;;;;6276583;22;20330;-69
2022/12/13 03:00:24;;;;;;;2.67;1.87;;;;;;;;;;6276891;22;20000;-69
2022/12/13 03:02:53;;;;;;;3.53;1.90;;;;;;;;;;6276524;22;19999;-69
2022/12/13 03:08:22;;;;;;;3.17;2.20;;;;;;;;;;6276046;22;20010;-69
2022/12/13 03:10:57;;;;;;;3.27;1.97;;;;;;;;;;6276491;22;20018;-69
2022/12/13 03:13:37;;;;;;;3.70;1.77;;;;;;;;;;6276436;22;19995;-69
2022/12/13 03:16:15;;;;;;;3.33;2.03;;;;;;;;;;6276458;22;20000;-69
2022/12/13 03:18:41;;;;;;;2.53;1.90;;;;;;;;;;6276548;22;20000;-69
2022/12/13 03:21:09;;;;;;;4.13;2.23;;;;;;;;;;6276217;22;20008;-70
2022/12/13 03:23:36;;;;;;;3.47;2.20;;;;;;;;;;6276341;22;20419;-68
2022/12/13 03:26:08;;;;;;;4.07;2.40;;;;;;;;;;6276448;22;20057;-68
2022/12/13 03:28:34;;;;;;;3.17;2.00;;;;;;;;;;6276690;22;20003;-69
2022/12/13 03:31:00;;;;;;;2.70;1.90;;;;;;;;;;6275911;22;20011;-69
2022/12/13 03:33:26;;;;;;;3.00;1.93;;;;;;;;;;6276294;22;20318;-69
2022/12/13 03:35:52;;;;;;;2.93;2.03;;;;;;;;;;6276139;22;20017;-69
2022/12/13 03:38:18;;;;;;;3.70;2.00;;;;;;;;;;6276313;22;20061;-69
2022/12/13 03:40:44;;;;;;;3.90;2.47;;;;;;;;;;6275915;22;20474;-69
2022/12/13 03:43:11;;;;;;;4.60;2.13;;;;;;;;;;6276073;22;20014;-69
2022/12/13 03:45:37;;;;;;;2.90;1.80;;;;;;;;;;6276157;22;20356;-69
2022/12/13 03:48:03;;;;;;;3.60;1.80;;;;;;;;;;6276401;22;20003;-69
2022/12/13 03:50:29;;;;;;;3.53;1.70;;;;;;;;;;6276124;22;20007;-69
2022/12/13 03:52:59;;;;;;;2.43;1.63;;;;;;;;;;6275726;22;20019;-69
2022/12/13 03:55:25;;;;;;;2.87;1.73;;;;;;;;;;6275913;22;20007;-69
2022/12/13 03:57:51;;;;;;;3.07;1.70;;;;;;;;;;6276208;22;20529;-69
2022/12/13 04:00:17;;;;;;;4.70;1.97;;;;;;;;;;6275954;22;20043;-69
2022/12/13 04:02:43;;;;;;;2.43;1.70;;;;;;;;;;6276129;22;20449;-69
2022/12/13 04:05:09;;;;;;;3.27;1.60;;;;;;;;;;6276509;22;20003;-69
2022/12/13 04:07:35;;;;;;;2.73;1.90;;;;;;;;;;6275752;22;20318;-69
2022/12/13 04:10:02;;;;;;;4.27;3.03;;;;;;;;;;6275907;22;20003;-69
2022/12/13 04:15:12;;;;;;;3.80;2.20;;;;;;;;;;6276301;22;20522;-69
2022/12/13 04:17:38;;;;;;;3.20;1.80;;;;;;;;;;6277278;22;20100;-69
2022/12/13 04:20:05;;;;;;;4.40;2.07;;;;;;;;;;6302055;22;20368;-69
2022/12/13 04:22:31;;;;;;;3.13;2.10;;;;;;;;;;6277805;22;20449;-69
2022/12/13 04:24:57;;;;;;;3.67;2.40;;;;;;;;;;6277806;22;20011;-69
2022/12/13 04:27:23;;;;;;;3.33;2.07;;;;;;;;;;6278273;22;20000;-69
2022/12/13 04:29:49;;;;;;;3.10;2.10;;;;;;;;;;6278533;22;20006;-68
2022/12/13 04:32:15;;;;;;;3.47;1.87;;;;;;;;;;6278442;22;20329;-68
2022/12/13 04:34:41;;;;;;;5.67;2.10;;;;;;;;;;6278067;22;20062;-69
2022/12/13 04:37:08;;;;;;;3.17;2.03;;;;;;;;;;6278643;22;20007;-69
2022/12/13 04:39:34;;;;;;;2.50;1.93;;;;;;;;;;6277790;22;20003;-70
2022/12/13 04:42:00;;;;;;;5.13;2.30;;;;;;;;;;6277697;22;20414;-69
2022/12/13 04:44:26;;;;;;;2.73;1.80;;;;;;;;;;6277848;22;20002;-68
2022/12/13 04:46:52;;;;;;;3.00;2.00;;;;;;;;;;6277821;22;20004;-69
2022/12/13 04:49:18;;;;;;;3.67;2.00;;;;;;;;;;6277792;22;19995;-69
2022/12/13 04:51:44;;;;;;;2.87;1.80;;;;;;;;;;6277661;22;20015;-69
2022/12/13 04:54:10;;;;;;;4.47;2.57;;;;;;;;;;6277503;22;20357;-69
2022/12/13 04:56:37;;;;;;;3.23;2.10;;;;;;;;;;6277629;22;20077;-69
2022/12/13 04:59:03;;;;;;;5.83;2.20;;;;;;;;;;6277673;22;20003;-68
2022/12/13 05:01:29;;;;;;;4.00;2.50;;;;;;;;;;6277577;22;20330;-69
2022/12/13 05:03:55;;;;;;;3.43;2.10;;;;;;;;;;6277965;22;20058;-69
2022/12/13 05:06:21;;;;;;;4.20;2.30;;;;;;;;;;6277633;22;20318;-69
2022/12/13 05:08:47;;;;;;;3.30;2.00;;;;;;;;;;6277668;22;20003;-69
2022/12/13 05:11:13;;;;;;;3.87;2.50;;;;;;;;;;6277064;22;20019;-71
2022/12/13 05:13:40;;;;;;;5.20;2.43;;;;;;;;;;6277295;22;20075;-69
2022/12/13 05:16:07;;;;;;;3.87;2.27;;;;;;;;;;6277502;22;19995;-69
2022/12/13 05:18:33;;;;;;;4.13;2.57;;;;;;;;;;6277497;22;20372;-69
2022/12/13 05:21:07;;;;;;;6.70;2.60;;;;;;;;;;6277316;22;19995;-68
2022/12/13 05:23:33;;;;;;;3.67;2.27;;;;;;;;;;6277680;22;20075;-68
2022/12/13 05:25:59;;;;;;;3.47;2.60;;;;;;;;;;6277200;22;20457;-68
2022/12/13 05:28:27;;;;;;;4.70;2.43;;;;;;;;;;6277010;22;20079;-68
2022/12/13 05:30:53;;;;;;;5.13;2.57;;;;;;;;;;6301549;22;20449;-69
2022/12/13 05:33:19;;;;;;;4.57;2.20;;;;;;;;;;6277241;22;20377;-69
2022/12/13 05:35:46;;;;;;;4.57;2.30;;;;;;;;;;6277665;22;20427;-69
2022/12/13 05:38:12;;;;;;;5.70;2.50;;;;;;;;;;6276936;22;20003;-70
2022/12/13 05:40:38;;;;;;;3.87;2.10;;;;;;;;;;6277017;22;19996;-71
2022/12/13 05:43:04;;;;;;;3.50;2.27;;;;;;;;;;6277346;22;20010;-69
2022/12/13 05:45:31;;;;;;;7.00;2.33;;;;;;;;;;6277140;22;20031;-70
2022/12/13 05:47:57;;;;;;;4.10;2.40;;;;;;;;;;6277604;22;20077;-69
2022/12/13 05:50:24;;;;;;;3.57;2.03;;;;;;;;;;6277351;22;20337;-69
2022/12/13 05:52:50;;;;;;;3.47;2.30;;;;;;;;;;6276882;22;20012;-68
2022/12/13 05:55:16;;;;;;;3.60;2.20;;;;;;;;;;6276897;22;20334;-69
2022/12/13 05:57:42;;;;;;;4.73;2.77;;;;;;;;;;6277471;22;19996;-69
2022/12/13 06:00:09;;;;;;;4.87;2.87;;;;;;;;;;6276760;22;19996;-69
2022/12/13 06:02:42;;;;;;;6.50;2.40;;;;;;;;;;6301580;22;20029;-69
2022/12/13 06:05:08;;;;;;;;;;;;;;;;;;6277539;22;20000;-69
2022/12/13 06:07:35;;;;;;;4.70;2.50;;;;;;;;;;6276693;22;19940;-69
2022/12/13 06:10:01;;;;;;;4.60;2.40;;;;;;;;;;6276263;22;20011;-69
2022/12/13 06:12:27;;;;;;;4.50;2.70;;;;;;;;;;6277077;22;20349;-68
2022/12/13 06:14:53;;;;;;;5.43;2.40;;;;;;;;;;6276916;22;20003;-69
2022/12/13 06:17:23;;;;;;;6.00;3.30;;;;;;;;;;6300871;22;19999;-69
2022/12/13 06:19:49;;;;;;;5.53;3.60;;;;;;;;;;6277186;22;20007;-71
2022/12/13 06:22:15;;;;;;;4.73;2.80;;;;;;;;;;6276827;22;20003;-70
2022/12/13 06:24:41;;;;;;;8.43;3.10;;;;;;;;;;6276819;22;20003;-69
2022/12/13 06:27:07;;;;;;;6.80;3.03;;;;;;;;;;6276685;22;20000;-69
2022/12/13 06:29:33;;;;;;;4.23;2.77;;;;;;;;;;6277165;22;20004;-70
2022/12/13 06:32:00;;;;;;;5.47;3.00;;;;;;;;;;6276965;22;20012;-69
2022/12/13 06:34:27;;;;;;;6.03;2.80;;;;;;;;;;6276497;22;20000;-70
2022/12/13 06:36:53;;;;;;;5.10;3.20;;;;;;;;;;6276591;22;20011;-69
2022/12/13 06:39:20;;;;;;;7.10;3.00;;;;;;;;;;6276393;22;20057;-69
2022/12/13 06:41:46;;;;;;;5.10;2.80;;;;;;;;;;6276596;22;20417;-71
2022/12/13 06:44:12;;;;;;;7.00;3.93;;;;;;;;;;6277103;22;20037;-70
2022/12/13 06:46:38;;;;;;;7.10;3.77;;;;;;;;;;6277177;22;20426;-71
2022/12/13 06:49:04;;;;;;;8.47;4.33;;;;;;;;;;6276386;22;20004;-68
2022/12/13 06:51:30;;;;;;;7.83;4.60;;;;;;;;;;6276155;22;20011;-68
2022/12/13 06:53:56;;;;;;;6.70;3.50;;;;;;;;;;6274787;22;20000;-69
2022/12/13 06:56:22;;;;;;;5.40;3.40;;;;;;;;;;6275096;22;20117;-69
2022/12/13 06:58:48;;;;;;;7.63;3.47;;;;;;;;;;6275041;22;20027;-69
2022/12/13 07:01:16;;;;;;;7.97;3.90;;;;;;;;;;6275561;22;20003;-69
2022/12/13 07:03:42;;;;;;;11.47;4.80;;;;;;;;;;6275295;22;20426;-69
2022/12/13 07:06:12;;;;;;;12.07;3.90;;;;;;;;;;6275468;22;20328;-69
2022/12/13 07:08:39;;;;;;;14.43;4.20;;;;;;;;;;6275409;22;20000;-69
2022/12/13 07:11:05;;;;;;;9.57;6.50;;;;;;;;;;6275610;22;20308;-69
2022/12/13 07:13:32;;;;;;;8.30;3.90;;;;;;;;;;6275994;22;19996;-69
2022/12/13 07:15:59;;;;;;;5.27;3.57;;;;;;;;;;6275712;22;20007;-69
2022/12/13 07:18:26;;;;;;;5.90;3.80;;;;;;;;;;6275730;22;19995;-69
2022/12/13 07:20:52;;;;;;;7.77;3.90;;;;;;;;;;6275751;22;20003;-68
2022/12/13 07:23:18;;;;;;;7.67;4.37;;;;;;;;;;6275155;22;19996;-68
2022/12/13 07:25:51;;;;;;;7.07;4.00;;;;;;;;;;6273361;22;20369;-71
2022/12/13 07:28:17;;;;;;;7.20;3.63;;;;;;;;;;6232331;22;20397;-69
2022/12/13 07:30:43;;;;;;;7.00;4.43;;;;;;;;;;6274757;22;20089;-69
2022/12/13 07:33:10;;;;;;;9.90;4.20;;;;;;;;;;6274892;22;19995;-70
2022/12/13 07:35:36;;;;;;;6.40;3.77;;;;;;;;;;6274742;22;20065;-70
2022/12/13 07:38:02;;;;;;;5.70;3.60;;;;;;;;;;6274764;22;20007;-68
2022/12/13 07:40:28;;;;;;;6.33;3.83;;;;;;;;;;6274390;22;20038;-69
2022/12/13 07:42:55;;;;;;;7.93;4.10;;;;;;;;;;6274962;22;19996;-69
2022/12/13 07:45:22;;;;;;;18.33;9.47;;;;;;;;;;6275118;22;20350;-69
2022/12/13 07:47:49;;;;;;;21.67;10.13;;;;;;;;;;6275071;22;20062;-68
2022/12/13 07:50:15;;;;;;;15.20;7.83;;;;;;;;;;6274784;22;20015;-69
2022/12/13 07:52:41;;;;;;;19.47;9.57;;;;;;;;;;6274223;22;20016;-71
2022/12/13 07:55:08;;;;;;;14.13;8.43;;;;;;;;;;6274862;22;20035;-68
2022/12/13 07:57:34;;;;;;;9.80;5.93;;;;;;;;;;6274655;22;20331;-67
2022/12/13 08:02:34;;;;;;;6.07;3.63;;;;;;;;;;6336854;22;20359;-66
2022/12/13 08:05:00;;;;;;;6.50;4.17;;;;;;;;;;6337232;22;20003;-66
2022/12/13 08:07:26;;;;;;;4.90;3.80;;;;;;;;;;6337074;22;20037;-67
2022/12/13 08:09:54;;;;;;;6.43;4.30;;;;;;;;;;6338071;22;20421;-67
2022/12/13 08:12:20;;;;;;;4.97;3.20;;;;;;;;;;6363090;22;20344;-66
2022/12/13 08:14:46;;;;;;;5.63;3.70;;;;;;;;;;6338386;22;19998;-67
2022/12/13 08:17:12;;;;;;;4.87;2.97;;;;;;;;;;6338209;22;19999;-67
2022/12/13 08:19:38;;;;;;;4.17;2.73;;;;;;;;;;6337521;22;20421;-67
2022/12/13 08:22:04;;;;;;;4.57;2.90;;;;;;;;;;6337820;22;20100;-67
2022/12/13 08:24:31;;;;;;;6.50;3.47;;;;;;;;;;6338280;22;20544;-66
2022/12/13 08:26:59;;;;;;;4.97;2.93;;;;;;;;;;6338307;22;20329;-67
2022/12/13 08:29:26;;;;;;;5.03;3.37;;;;;;;;;;6336942;22;19994;-67
2022/12/13 08:31:52;;;;;;;5.97;3.30;;;;;;;;;;6337365;22;20007;-67
2022/12/13 08:34:18;;;;;;;4.10;2.87;;;;;;;;;;6338257;22;20003;-66
2022/12/13 08:36:44;;;;;;;7.30;3.07;;;;;;;;;;6338121;22;20370;-66
2022/12/13 08:39:10;;;;;;;4.47;2.60;;;;;;;;;;6362516;22;20078;-67
2022/12/13 08:41:36;;;;;;;5.27;2.80;;;;;;;;;;6338120;22;19995;-66
2022/12/13 08:44:02;;;;;;;5.13;3.03;;;;;;;;;;6338367;22;20006;-66
2022/12/13 08:46:28;;;;;;;5.50;3.13;;;;;;;;;;6338320;22;19999;-67
2022/12/13 08:48:54;;;;;;;4.93;2.90;;;;;;;;;;6338243;22;20052;-66
2022/12/13 08:51:23;;;;;;;4.10;2.97;;;;;;;;;;6338350;22;20014;-66
2022/12/13 08:53:51;;;;;;;3.53;2.47;;;;;;;;;;6336550;22;20015;-66
2022/12/13 08:56:20;;;;;;;3.67;2.60;;;;;;;;;;6338377;22;20003;-66
2022/12/13 08:58:50;;;;;;;4.87;3.10;;;;;;;;;;6337685;22;19999;-67
2022/12/13 09:01:17;;;;;;;4.27;2.73;;;;;;;;;;6337128;22;20011;-67
2022/12/13 09:03:43;;;;;;;5.20;3.10;;;;;;;;;;6338253;22;19999;-67
2022/12/13 09:06:10;;;;;;;4.97;2.90;;;;;;;;;;6339283;22;20003;-66
2022/12/13 09:08:36;;;;;;;6.00;2.83;;;;;;;;;;6363849;22;20003;-67
2022/12/13 09:11:03;;;;;;;6.17;2.80;;;;;;;;;;6339077;22;20007;-66
2022/12/13 09:13:31;;;;;;;5.57;2.77;;;;;;;;;;6339423;22;20480;-67
2022/12/13 09:15:57;;;;;;;19.40;3.07;;;;;;;;;;6339921;22;20009;-66
2022/12/13 09:18:24;;;;;;;5.13;2.97;;;;;;;;;;6340148;22;20316;-66
2022/12/13 09:20:50;;;;;;;6.40;2.90;;;;;;;;;;6340060;22;20010;-66
2022/12/13 09:23:16;;;;;;;5.57;2.77;;;;;;;;;;6340096;22;20082;-66
2022/12/13 09:25:42;;;;;;;5.20;2.67;;;;;;;;;;6339971;22;20022;-66
2022/12/13 09:28:08;;;;;;;5.77;3.20;;;;;;;;;;6339897;22;20009;-66
2022/12/13 09:30:38;;;;;;;4.00;2.37;;;;;;;;;;6339690;22;20049;-66
2022/12/13 09:33:04;;;;;;;3.60;2.23;;;;;;;;;;6339906;22;20003;-66
2022/12/13 09:35:30;;;;;;;4.37;2.90;;;;;;;;;;6339709;22;19999;-66
2022/12/13 09:37:56;;;;;;;5.03;3.10;;;;;;;;;;6339740;22;20468;-66
2022/12/13 09:40:23;;;;;;;4.37;2.90;;;;;;;;;;6340055;22;19999;-65
2022/12/13 09:42:51;;;;;;;7.30;3.17;;;;;;;;;;6339830;22;20345;-66
2022/12/13 09:45:17;;;;;;;5.47;3.50;;;;;;;;;;6339751;22;20409;-66
2022/12/13 09:47:45;;;;;;;20.67;4.20;;;;;;;;;;6339738;22;19998;-66
2022/12/13 09:50:33;;;;;;;6.40;3.23;;;;;;;;;;6339754;22;20440;-66
2022/12/13 09:53:00;;;;;;;4.27;3.30;;;;;;;;;;6340091;22;20341;-66
2022/12/13 09:55:28;;;;;;;4.97;3.57;;;;;;;;;;6339991;22;20925;-67
2022/12/13 09:57:54;;;;;;;5.90;4.07;;;;;;;;;;6339514;22;20325;-66
2022/12/13 10:00:26;;;;;;;5.53;3.40;;;;;;;;;;6339483;22;19998;-66
2022/12/13 10:02:54;;;;;;;7.13;3.83;;;;;;;;;;6339654;22;20033;-67
2022/12/13 10:05:20;;;;;;;7.03;4.33;;;;;;;;;;6339786;22;20355;-67
2022/12/13 10:07:46;;;;;;;6.13;3.97;;;;;;;;;;6339205;22;20055;-66
2022/12/13 10:10:13;;;;;;;7.60;4.20;;;;;;;;;;6339345;22;19999;-67
2022/12/13 10:12:40;;;;;;;6.37;3.93;;;;;;;;;;6339622;22;20003;-66
2022/12/13 10:15:07;;;;;;;6.03;3.97;;;;;;;;;;6339301;22;19999;-67
2022/12/13 10:17:35;;;;;;;6.57;4.17;;;;;;;;;;6339142;22;19999;-67
2022/12/13 10:20:02;;;;;;;8.70;4.70;;;;;;;;;;6339030;22;20031;-67
2022/12/13 10:22:28;;;;;;;7.83;4.87;;;;;;;;;;6339897;22;20458;-67
2022/12/13 10:24:54;;;;;;;13.03;4.70;;;;;;;;;;6339307;22;20124;-66
2022/12/13 10:27:35;;;;;;;6.87;4.33;;;;;;;;;;6339071;22;20022;-67
2022/12/13 10:30:20;;;;;;;10.10;4.23;;;;;;;;;;6339801;22;20127;-67
2022/12/13 10:32:46;;;;;;;10.63;4.63;;;;;;;;;;6339973;22;20007;-66
2022/12/13 10:35:24;;;;;;;6.77;4.57;;;;;;;;;;6339255;22;20005;-67
2022/12/13 10:37:51;;;;;;;6.53;4.00;;;;;;;;;;6339252;22;20440;-66
2022/12/13 10:40:30;;;;;;;6.63;4.17;;;;;;;;;;6339523;22;20375;-66
2022/12/13 10:43:06;;;;;;;7.03;4.30;;;;;;;;;;6339922;22;20077;-66
2022/12/13 10:45:32;;;;;;;9.33;4.33;;;;;;;;;;6339273;22;19999;-65
2022/12/13 10:47:58;;;;;;;7.27;3.73;;;;;;;;;;6339361;22;20005;-66
2022/12/13 10:50:26;;;;;;;8.33;4.33;;;;;;;;;;6339171;22;20082;-66
2022/12/13 10:52:52;;;;;;;7.17;4.20;;;;;;;;;;6339605;22;20010;-65
2022/12/13 10:55:27;;;;;;;6.77;4.17;;;;;;;;;;6339315;22;20002;-65
2022/12/13 10:57:54;;;;;;;8.17;4.10;;;;;;;;;;6338017;22;20447;-66
2022/12/13 11:00:39;;;;;;;7.30;4.77;;;;;;;;;;6338924;22;20424;-66
2022/12/13 11:03:05;;;;;;;8.93;4.30;;;;;;;;;;6338957;22;20015;-66
2022/12/13 11:05:33;;;;;;;8.07;4.83;;;;;;;;;;6339368;22;20034;-67
2022/12/13 11:08:14;;;;;;;8.07;4.40;;;;;;;;;;6339251;22;19999;-66
2022/12/13 11:10:41;;;;;;;7.67;4.50;;;;;;;;;;6339079;22;20003;-66
2022/12/13 11:13:07;;;;;;;7.03;4.57;;;;;;;;;;6339194;22;20081;-67
2022/12/13 11:15:34;;;;;;;7.67;5.07;;;;;;;;;;6338928;22;20028;-66
2022/12/13 11:18:21;;;;;;;8.23;4.60;;;;;;;;;;6339036;22;20367;-66
2022/12/13 11:20:58;;;;;;;5.57;3.60;;;;;;;;;;6339343;22;19998;-67
2022/12/13 11:23:28;;;;;;;10.10;3.80;;;;;;;;;;6339125;22;19998;-66
2022/12/13 11:25:55;;;;;;;6.97;4.20;;;;;;;;;;6338702;22;20041;-66
2022/12/13 11:28:41;;;;;;;6.23;3.67;;;;;;;;;;6338720;22;19995;-66
2022/12/13 11:31:21;;;;;;;5.00;3.50;;;;;;;;;;6338862;22;20007;-66
2022/12/13 11:33:47;;;;;;;6.83;4.10;;;;;;;;;;6339071;22;20425;-67
2022/12/13 11:36:32;;;;;;;6.00;3.87;;;;;;;;;;6363620;22;20036;-66
2022/12/13 11:38:58;;;;;;;5.33;3.77;;;;;;;;;;6363661;22;20341;-67
2022/12/13 11:41:34;;;;;;;5.93;4.23;;;;;;;;;;6338928;22;20034;-66
2022/12/13 11:44:07;;;;;;;6.97;4.10;;;;;;;;;;6337390;22;20081;-66
2022/12/13 11:47:02;;;;;;;6.90;4.57;;;;;;;;;;6338965;22;20006;-66
2022/12/13 11:49:41;;;;;;;8.03;4.50;;;;;;;;;;6319401;22;20002;-66
2022/12/13 11:52:13;;;;;;;8.50;4.57;;;;;;;;;;6338654;22;20436;-67
2022/12/13 11:54:51;;;;;;;6.13;4.10;;;;;;;;;;6338717;22;20432;-67
2022/12/13 11:57:36;;;;;;;6.43;3.97;;;;;;;;;;6338781;22;20278;-67
2022/12/13 12:00:11;;;;;;;6.23;4.33;;;;;;;;;;6338836;22;19995;-66
2022/12/13 12:02:44;;;;;;;8.27;4.57;;;;;;;;;;6338737;22;20064;-67
2022/12/13 12:05:37;;;;;;;8.27;5.07;;;;;;;;;;6338979;22;20033;-66
2022/12/13 12:08:12;;;;;;;10.43;4.65;;;;;;;;;;6334586;22;20007;-66
2022/12/13 12:10:40;;;;;;;6.93;4.80;;;;;;;;;;6338214;22;20013;-67
2022/12/13 12:13:27;;;;;;;8.63;4.93;;;;;;;;;;6338350;22;20056;-66
2022/12/13 12:16:04;;;;;;;8.13;4.93;;;;;;;;;;6322077;22;20357;-66
2022/12/13 12:18:32;;;;;;;8.27;5.70;;;;;;;;;;6338284;22;20325;-66
2022/12/13 12:21:16;;;;;;;7.03;4.90;;;;;;;;;;6338657;22;20425;-67
2022/12/13 12:24:01;;;;;;;8.20;5.33;;;;;;;;;;6338310;22;20002;-66
2022/12/13 12:26:33;;;;;;;9.07;4.70;;;;;;;;;;6338664;22;20006;-65
2022/12/13 12:28:59;;;;;;;7.10;5.10;;;;;;;;;;6338628;22;20009;-66
2022/12/13 12:31:30;;;;;;;7.47;5.10;;;;;;;;;;6338788;22;20018;-66
2022/12/13 12:33:59;;;;;;;7.83;4.87;;;;;;;;;;6338567;22;20078;-66
2022/12/13 12:36:44;;;;;;;6.30;4.60;;;;;;;;;;6338214;22;19999;-65
2022/12/13 12:39:36;;;;;;;7.37;4.37;;;;;;;;;;6340437;22;20026;-65
2022/12/13 12:42:08;;;;;;;13.87;5.17;;;;;;;;;;6340686;22;20052;-66
2022/12/13 12:44:49;;;;;;;6.97;4.33;;;;;;;;;;6340174;22;20003;-66
2022/12/13 12:47:21;;;;;;;10.87;4.50;;;;;;;;;;6340392;22;20217;-65
2022/12/13 12:50:02;;;;;;;11.13;5.15;;;;;;;;;;6340431;22;20006;-66
2022/12/13 12:52:50;;;;;;;7.50;4.50;;;;;;;;;;6365448;22;20018;-66
2022/12/13 12:55:39;;;;;;;12.73;5.00;;;;;;;;;;6339997;22;20325;-66
2022/12/13 12:58:24;;;;;;;7.93;4.63;;;;;;;;;;6340311;22;20006;-68
2022/12/13 13:01:05;;;;;;;6.90;4.70;;;;;;;;;;6340202;22;20042;-69
2022/12/13 13:03:35;;;;;;;8.60;4.73;;;;;;;;;;6339542;22;20003;-69
2022/12/13 13:06:04;;;;;;;10.83;4.53;;;;;;;;;;6363687;22;20302;-67
2022/12/13 13:08:30;;;;;;;7.63;5.43;;;;;;;;;;6364182;22;20007;-67
2022/12/13 13:10:57;;;;;;;10.23;5.77;;;;;;;;;;6339688;22;20010;-67
2022/12/13 13:13:38;;;;;;;7.93;4.93;;;;;;;;;;6339999;22;19995;-67
2022/12/13 13:16:05;;;;;;;6.20;4.30;;;;;;;;;;6339360;22;20013;-67
2022/12/13 13:18:48;;;;;;;8.53;4.57;;;;;;;;;;6364261;22;20010;-67
2022/12/13 13:21:24;;;;;;;6.88;4.65;;;;;;;;;;6339311;22;20003;-67
2022/12/13 13:24:16;;;;;;;5.87;4.17;;;;;;;;;;6339395;22;20011;-66
2022/12/13 13:26:43;;;;;;;7.30;4.97;;;;;;;;;;6333896;22;20242;-67
2022/12/13 13:29:25;;;;;;;6.63;4.23;;;;;;;;;;6338766;22;20002;-66
2022/12/13 13:32:06;;;;;;;6.63;4.53;;;;;;;;;;6338320;22;20396;-66
2022/12/13 13:34:36;;;;;;;6.67;4.90;;;;;;;;;;6339616;22;19995;-67
2022/12/13 13:37:22;;;;;;;6.93;4.93;;;;;;;;;;6340112;22;20069;-66
2022/12/13 13:40:21;;;;;;;6.67;4.50;;;;;;;;;;6363862;22;20017;-66
2022/12/13 13:43:02;;;;;;;7.27;4.80;;;;;;;;;;6288184;22;20327;-68
2022/12/13 13:45:30;;;;;;;17.93;4.83;;;;;;;;;;6339723;22;19999;-67
2022/12/13 13:47:59;;;;;;;7.23;5.20;;;;;;;;;;6339984;22;20010;-67
2022/12/13 13:50:38;;;;;;;9.33;5.83;;;;;;;;;;6339409;22;20015;-68
2022/12/13 13:53:20;;;;;;;8.47;6.10;;;;;;;;;;6364400;22;20414;-67
2022/12/13 13:55:55;;;;;;;10.67;6.60;;;;;;;;;;6339564;22;20009;-68
2022/12/13 13:58:24;;;;;;;9.97;6.60;;;;;;;;;;6339593;22;20003;-68
2022/12/13 14:01:10;;;;;;;10.27;6.53;;;;;;;;;;6339315;22;20049;-69
2022/12/13 14:03:49;;;;;;;10.17;6.77;;;;;;;;;;6322923;22;20007;-68
2022/12/13 14:06:34;;;;;;;8.77;6.43;;;;;;;;;;6338763;22;20003;-66
2022/12/13 14:09:03;;;;;;;10.00;5.50;;;;;;;;;;6339382;22;20070;-68
2022/12/13 14:11:32;;;;;;;7.80;5.63;;;;;;;;;;6363212;22;20018;-67
2022/12/13 14:14:04;;;;;;;10.83;6.30;;;;;;;;;;6338787;22;20002;-67
2022/12/13 14:16:36;;;;;;;10.15;6.00;;;;;;;;;;6339083;22;20003;-67
2022/12/13 14:19:21;;;;;;;10.93;6.50;;;;;;;;;;6338794;22;19999;-68
2022/12/13 14:21:54;;;;;;;7.63;5.43;;;;;;;;;;6338819;22;20003;-67
2022/12/13 14:24:20;;;;;;;9.73;6.17;;;;;;;;;;6363714;22;20003;-68
2022/12/13 14:26:47;;;;;;;9.53;6.23;;;;;;;;;;6339351;22;20002;-67
2022/12/13 14:29:17;;;;;;;9.80;6.27;;;;;;;;;;6338981;22;20007;-67
2022/12/13 14:31:45;;;;;;;9.33;6.43;;;;;;;;;;6338630;22;20040;-67
2022/12/13 14:34:26;;;;;;;9.53;6.50;;;;;;;;;;6337845;22;20327;-67
2022/12/13 14:36:56;;;;;;;10.40;6.77;;;;;;;;;;6338388;22;20022;-66
2022/12/13 14:39:24;;;;;;;11.17;6.97;;;;;;;;;;6337777;22;20003;-67
2022/12/13 14:41:51;;;;;;;9.47;6.33;;;;;;;;;;6338911;22;20325;-67
2022/12/13 14:44:28;;;;;;;13.53;6.57;;;;;;;;;;6336725;22;20038;-67
2022/12/13 14:46:55;;;;;;;8.90;6.40;;;;;;;;;;6338374;22;20002;-67
2022/12/13 14:49:22;;;;;;;9.43;6.73;;;;;;;;;;6338615;22;20002;-68